createdAt,value
2022-11-09T00:00:52.478Z,9.50
2022-11-09T00:03:20.043Z,9.50
2022-11-09T00:05:57.400Z,9.50
2022-11-09T00:08:24.722Z,9.50
2022-11-09T00:10:52.084Z,9.50
2022-11-09T00:13:19.522Z,9.50
2022-11-09T00:15:47.010Z,9.40
2022-11-09T00:18:14.282Z,9.40
2022-11-09T00:20:47.304Z,9.40
2022-11-09T00:23:18.827Z,9.40
2022-11-09T00:25:47.510Z,9.40
2022-11-09T00:28:15.075Z,9.50
2022-11-09T00:30:42.394Z,9.50
2022-11-09T00:33:12.146Z,9.40
2022-11-09T00:35:39.631Z,9.40
2022-11-09T00:38:07.023Z,9.40
2022-11-09T00:40:34.364Z,9.40
2022-11-09T00:43:01.706Z,9.40
2022-11-09T00:45:28.990Z,9.40
2022-11-09T00:47:58.080Z,9.30
2022-11-09T00:50:25.385Z,9.30
2022-11-09T00:52:52.791Z,9.30
2022-11-09T00:55:21.190Z,9.40
2022-11-09T00:57:51.716Z,9.40
2022-11-09T01:00:21.279Z,9.40
2022-11-09T01:02:50.133Z,9.40
2022-11-09T01:05:19.518Z,9.50
2022-11-09T01:07:48.397Z,9.50
2022-11-09T01:10:15.702Z,9.50
2022-11-09T01:12:43.099Z,9.60
2022-11-09T01:15:10.584Z,9.60
2022-11-09T01:17:37.921Z,9.50
2022-11-09T01:20:05.649Z,9.50
2022-11-09T01:22:32.942Z,9.50
2022-11-09T01:25:00.247Z,9.50
2022-11-09T01:27:27.570Z,9.40
2022-11-09T01:29:54.867Z,9.50
2022-11-09T01:32:22.182Z,9.40
2022-11-09T01:34:49.532Z,9.50
2022-11-09T01:37:16.809Z,9.50
2022-11-09T01:39:44.122Z,9.50
2022-11-09T01:42:11.411Z,9.50
2022-11-09T01:44:42.607Z,9.50
2022-11-09T01:47:24.369Z,9.50
2022-11-09T01:49:56.634Z,9.40
2022-11-09T01:52:35.027Z,9.40
2022-11-09T01:55:12.629Z,9.30
2022-11-09T01:57:51.142Z,9.20
2022-11-09T02:00:18.495Z,9.20
2022-11-09T02:02:56.081Z,9.20
2022-11-09T02:05:25.363Z,9.10
2022-11-09T02:07:54.489Z,9.10
2022-11-09T02:10:52.232Z,9.00
2022-11-09T02:13:21.089Z,9.00
2022-11-09T02:15:49.669Z,8.90
2022-11-09T02:18:17.304Z,8.90
2022-11-09T02:20:52.977Z,8.90
2022-11-09T02:23:23.225Z,8.80
2022-11-09T02:26:01.753Z,8.80
2022-11-09T02:28:29.229Z,8.80
2022-11-09T02:30:56.871Z,8.80
2022-11-09T02:33:25.222Z,8.70
2022-11-09T02:35:53.318Z,8.70
2022-11-09T02:38:21.900Z,8.70
2022-11-09T02:40:50.162Z,8.60
2022-11-09T02:43:17.911Z,8.50
2022-11-09T02:45:46.041Z,8.50
2022-11-09T02:48:13.445Z,8.50
2022-11-09T02:50:40.742Z,8.50
2022-11-09T02:53:08.015Z,8.50
2022-11-09T02:55:38.670Z,8.50
2022-11-09T02:58:07.419Z,8.50
2022-11-09T03:00:35.867Z,8.50
2022-11-09T03:03:04.063Z,8.50
2022-11-09T03:05:31.414Z,8.50
2022-11-09T03:08:02.401Z,8.40
2022-11-09T03:10:32.127Z,8.40
2022-11-09T03:12:59.535Z,8.40
2022-11-09T03:15:26.877Z,8.40
2022-11-09T03:17:54.231Z,8.40
2022-11-09T03:20:22.409Z,8.40
2022-11-09T03:22:49.759Z,8.50
2022-11-09T03:25:17.482Z,8.50
2022-11-09T03:27:44.799Z,8.50
2022-11-09T03:30:13.538Z,8.50
2022-11-09T03:32:43.187Z,8.60
2022-11-09T03:35:13.026Z,8.60
2022-11-09T03:37:40.449Z,8.60
2022-11-09T03:40:08.288Z,8.60
2022-11-09T03:42:35.580Z,8.60
2022-11-09T03:45:02.928Z,8.60
2022-11-09T03:47:30.316Z,8.70
2022-11-09T03:49:57.601Z,8.80
2022-11-09T03:52:25.038Z,8.80
2022-11-09T03:54:52.312Z,8.90
2022-11-09T03:57:19.597Z,9.00
2022-11-09T03:59:46.888Z,9.10
2022-11-09T04:02:14.200Z,9.20
2022-11-09T04:04:41.508Z,9.20
2022-11-09T04:07:10.596Z,9.30
2022-11-09T04:09:38.049Z,9.40
2022-11-09T04:12:05.470Z,9.40
2022-11-09T04:14:32.801Z,9.40
2022-11-09T04:17:00.112Z,9.50
2022-11-09T04:19:27.398Z,9.50
2022-11-09T04:21:54.703Z,9.50
2022-11-09T04:24:21.956Z,9.50
2022-11-09T04:26:49.259Z,9.50
2022-11-09T04:29:16.552Z,9.60
2022-11-09T04:31:43.875Z,9.60
2022-11-09T04:34:11.181Z,9.60
2022-11-09T04:36:38.853Z,9.70
2022-11-09T04:39:06.214Z,9.70
2022-11-09T04:41:33.543Z,9.70
2022-11-09T04:44:00.872Z,9.70
2022-11-09T04:46:28.233Z,9.80
2022-11-09T04:48:55.547Z,9.80
2022-11-09T04:51:22.853Z,9.80
2022-11-09T04:53:50.298Z,9.80
2022-11-09T04:56:17.652Z,9.80
2022-11-09T04:58:44.978Z,9.80
2022-11-09T05:01:13.703Z,9.90
2022-11-09T05:03:41.271Z,9.90
2022-11-09T05:06:27.740Z,9.90
2022-11-09T05:08:55.543Z,9.90
2022-11-09T05:11:23.040Z,9.90
2022-11-09T05:13:51.628Z,9.90
2022-11-09T05:16:19.682Z,9.90
2022-11-09T05:18:47.093Z,9.90
2022-11-09T05:21:14.589Z,9.90
2022-11-09T05:24:00.477Z,9.90
2022-11-09T05:26:39.069Z,9.80
2022-11-09T05:29:12.711Z,9.80
2022-11-09T05:31:40.249Z,9.80
2022-11-09T05:34:07.646Z,9.80
2022-11-09T05:36:35.060Z,9.70
2022-11-09T05:39:02.388Z,9.70
2022-11-09T05:41:29.776Z,9.70
2022-11-09T05:43:57.046Z,9.70
2022-11-09T05:46:25.214Z,9.70
2022-11-09T05:48:52.519Z,9.70
2022-11-09T05:51:19.959Z,9.70
2022-11-09T05:53:47.321Z,9.70
2022-11-09T05:56:14.973Z,9.80
2022-11-09T05:58:42.483Z,9.80
2022-11-09T06:01:12.697Z,9.90
2022-11-09T06:03:42.047Z,9.90
2022-11-09T06:06:13.206Z,9.90
2022-11-09T06:08:40.723Z,9.90
2022-11-09T06:11:09.911Z,9.90
2022-11-09T06:13:37.555Z,10.00
2022-11-09T06:16:05.627Z,10.00
2022-11-09T06:18:33.530Z,9.90
2022-11-09T06:21:01.894Z,9.90
2022-11-09T06:23:30.202Z,9.90
2022-11-09T06:26:01.307Z,9.90
2022-11-09T06:28:28.914Z,9.90
2022-11-09T06:31:00.263Z,10.00
2022-11-09T06:33:27.607Z,10.00
2022-11-09T06:35:56.524Z,9.90
2022-11-09T06:38:26.341Z,9.90
2022-11-09T06:40:54.348Z,9.90
2022-11-09T06:43:22.841Z,9.90
2022-11-09T06:45:50.636Z,9.90
2022-11-09T06:48:18.104Z,10.00
2022-11-09T06:50:45.484Z,10.00
2022-11-09T06:53:13.926Z,10.00
2022-11-09T06:55:44.486Z,10.10
2022-11-09T06:58:16.428Z,10.10
2022-11-09T07:00:44.462Z,10.10
2022-11-09T07:03:15.853Z,10.00
2022-11-09T07:05:43.327Z,9.90
2022-11-09T07:08:10.818Z,9.90
2022-11-09T07:10:38.473Z,9.90
2022-11-09T07:13:06.117Z,9.80
2022-11-09T07:15:33.965Z,9.80
2022-11-09T07:18:02.077Z,9.80
2022-11-09T07:20:29.437Z,9.80
2022-11-09T07:22:56.859Z,9.90
2022-11-09T07:25:25.129Z,9.90
2022-11-09T07:27:52.924Z,10.00
2022-11-09T07:30:20.311Z,10.00
2022-11-09T07:33:08.213Z,10.10
2022-11-09T07:35:34.938Z,10.10
2022-11-09T07:38:02.428Z,10.20
2022-11-09T07:40:30.221Z,10.30
2022-11-09T07:43:02.627Z,10.40
2022-11-09T07:45:31.472Z,10.50
2022-11-09T07:48:03.844Z,10.50
2022-11-09T07:50:31.867Z,10.70
2022-11-09T07:53:00.031Z,10.70
2022-11-09T07:55:27.815Z,10.80
2022-11-09T07:57:59.087Z,10.90
2022-11-09T08:00:27.223Z,11.00
2022-11-09T08:02:54.858Z,11.00
2022-11-09T08:05:22.229Z,11.10
2022-11-09T08:07:54.817Z,11.20
2022-11-09T08:10:22.351Z,11.20
2022-11-09T08:12:57.139Z,11.30
2022-11-09T08:15:24.841Z,11.40
2022-11-09T08:17:52.309Z,11.50
2022-11-09T08:20:20.056Z,11.60
2022-11-09T08:22:47.814Z,11.70
2022-11-09T08:25:15.199Z,11.80
2022-11-09T08:27:42.685Z,11.90
2022-11-09T08:30:16.196Z,12.00
2022-11-09T08:32:43.739Z,12.20
2022-11-09T08:35:12.577Z,12.30
2022-11-09T08:37:39.870Z,12.40
2022-11-09T08:40:07.813Z,12.50
2022-11-09T08:42:35.206Z,12.60
2022-11-09T08:45:02.606Z,12.80
2022-11-09T08:47:29.954Z,12.80
2022-11-09T08:49:57.286Z,12.90
2022-11-09T08:52:24.600Z,13.00
2022-11-09T08:54:51.948Z,13.10
2022-11-09T08:57:19.851Z,13.10
2022-11-09T08:59:47.147Z,13.20
2022-11-09T09:02:14.685Z,13.30
2022-11-09T09:04:42.166Z,13.30
2022-11-09T09:07:09.657Z,13.40
2022-11-09T09:09:38.231Z,13.40
2022-11-09T09:12:06.505Z,13.50
2022-11-09T09:14:33.949Z,13.50
2022-11-09T09:17:01.262Z,13.60
2022-11-09T09:19:28.622Z,13.60
2022-11-09T09:21:56.033Z,13.70
2022-11-09T09:24:23.381Z,13.80
2022-11-09T09:26:50.657Z,13.80
2022-11-09T09:29:18.201Z,13.80
2022-11-09T09:31:45.538Z,13.90
2022-11-09T09:34:13.194Z,14.00
2022-11-09T09:36:46.310Z,14.10
2022-11-09T09:39:15.123Z,14.20
2022-11-09T09:41:52.458Z,14.20
2022-11-09T09:44:25.624Z,14.30
2022-11-09T09:46:55.906Z,14.40
2022-11-09T09:49:28.349Z,14.40
2022-11-09T09:52:01.760Z,14.50
2022-11-09T09:54:31.853Z,14.60
2022-11-09T09:57:00.348Z,14.60
2022-11-09T09:59:42.068Z,14.60
2022-11-09T10:02:18.525Z,14.50
2022-11-09T10:04:45.933Z,14.60
2022-11-09T10:07:37.449Z,14.60
2022-11-09T10:10:16.905Z,14.60
2022-11-09T10:13:09.031Z,14.70
2022-11-09T10:16:10.275Z,14.80
2022-11-09T10:18:50.820Z,14.90
2022-11-09T10:21:21.341Z,15.00
2022-11-09T10:24:09.919Z,15.00
2022-11-09T10:26:56.531Z,15.00
2022-11-09T10:29:45.166Z,15.00
2022-11-09T10:32:16.959Z,15.00
2022-11-09T10:34:52.195Z,15.10
2022-11-09T10:37:21.178Z,15.00
2022-11-09T10:40:16.839Z,15.10
2022-11-09T10:43:06.267Z,15.10
2022-11-09T10:46:18.606Z,15.10
2022-11-09T10:49:19.964Z,15.20
2022-11-09T10:52:06.723Z,15.30
2022-11-09T10:54:52.495Z,15.40
2022-11-09T10:57:38.085Z,15.60
2022-11-09T11:00:25.579Z,15.70
2022-11-09T11:03:30.539Z,15.90
2022-11-09T11:06:22.600Z,16.00
2022-11-09T11:09:09.666Z,16.10
2022-11-09T11:12:17.848Z,16.20
2022-11-09T11:15:04.887Z,16.30
2022-11-09T11:17:53.174Z,16.40
2022-11-09T11:20:39.096Z,16.50
2022-11-09T11:23:25.950Z,16.60
2022-11-09T11:26:30.318Z,16.70
2022-11-09T11:29:18.858Z,16.80
2022-11-09T11:32:12.351Z,16.90
2022-11-09T11:35:01.131Z,17.00
2022-11-09T11:38:01.201Z,17.20
2022-11-09T11:41:06.011Z,17.30
2022-11-09T11:44:03.462Z,17.30
2022-11-09T11:47:07.914Z,17.30
2022-11-09T11:50:20.625Z,17.40
2022-11-09T11:53:47.735Z,17.30
2022-11-09T11:56:39.342Z,17.40
2022-11-09T12:00:05.118Z,17.50
2022-11-09T12:03:15.319Z,17.60
2022-11-09T12:06:06.980Z,17.60
2022-11-09T12:09:44.745Z,17.60
2022-11-09T12:12:48.525Z,17.60
2022-11-09T12:15:38.138Z,17.70
2022-11-09T12:19:14.061Z,17.80
2022-11-09T12:22:44.365Z,17.80
2022-11-09T12:25:52.926Z,18.00
2022-11-09T12:28:45.783Z,18.20
2022-11-09T12:32:45.015Z,18.20
2022-11-09T12:35:38.872Z,18.20
2022-11-09T12:38:30.005Z,18.20
2022-11-09T12:41:17.341Z,18.20
2022-11-09T12:44:17.085Z,18.20
2022-11-09T12:47:10.450Z,18.10
2022-11-09T12:50:06.407Z,18.00
2022-11-09T12:52:52.394Z,17.90
2022-11-09T12:55:47.628Z,17.80
2022-11-09T12:58:34.844Z,17.70
2022-11-09T13:01:27.041Z,17.70
2022-11-09T13:04:17.882Z,17.70
2022-11-09T13:07:04.180Z,17.60
2022-11-09T13:09:54.595Z,17.60
2022-11-09T13:16:26.557Z,17.40
2022-11-09T13:19:20.189Z,17.40
2022-11-09T13:22:12.398Z,17.40
2022-11-09T13:25:02.473Z,17.30
2022-11-09T13:27:48.652Z,17.30
2022-11-09T13:30:52.928Z,17.20
2022-11-09T13:33:39.307Z,17.20
2022-11-09T13:36:25.117Z,17.10
2022-11-09T13:39:28.046Z,17.10
2022-11-09T13:42:31.055Z,17.10
2022-11-09T13:45:28.095Z,17.10
2022-11-09T13:48:42.761Z,17.10
2022-11-09T13:51:47.098Z,17.10
2022-11-09T13:54:36.874Z,17.00
2022-11-09T13:57:22.953Z,17.00
2022-11-09T14:00:19.560Z,17.00
2022-11-09T14:03:21.920Z,16.90
2022-11-09T14:06:12.338Z,17.00
2022-11-09T14:08:58.404Z,16.90
2022-11-09T14:12:13.276Z,17.00
2022-11-09T14:15:21.348Z,16.90
2022-11-09T14:18:19.472Z,16.80
2022-11-09T14:21:14.277Z,16.80
2022-11-09T14:24:16.182Z,16.70
2022-11-09T14:27:11.490Z,16.70
2022-11-09T14:30:02.427Z,16.70
2022-11-09T14:32:50.356Z,16.60
2022-11-09T14:35:39.151Z,16.60
2022-11-09T14:38:25.425Z,16.50
2022-11-09T14:41:22.853Z,16.50
2022-11-09T14:44:35.829Z,16.50
2022-11-09T14:47:29.406Z,16.50
2022-11-09T14:50:24.259Z,16.40
2022-11-09T14:53:15.177Z,16.40
2022-11-09T14:56:05.437Z,16.40
2022-11-09T14:58:51.416Z,16.30
2022-11-09T15:01:37.466Z,16.30
2022-11-09T15:04:23.711Z,16.20
2022-11-09T15:07:20.203Z,16.20
2022-11-09T15:10:08.486Z,16.10
2022-11-09T15:12:55.013Z,16.10
2022-11-09T15:15:40.924Z,16.00
2022-11-09T15:18:34.051Z,16.00
2022-11-09T15:21:26.237Z,15.90
2022-11-09T15:24:12.010Z,15.90
2022-11-09T15:26:58.049Z,15.80
2022-11-09T15:29:44.309Z,15.70
2022-11-09T15:32:37.931Z,15.60
2022-11-09T15:35:23.987Z,15.60
2022-11-09T15:38:37.492Z,15.40
2022-11-09T15:41:23.903Z,15.40
2022-11-09T15:44:10.514Z,15.30
2022-11-09T15:46:56.913Z,15.20
2022-11-09T15:49:43.066Z,15.20
2022-11-09T15:52:29.079Z,15.10
2022-11-09T15:55:15.703Z,15.00
2022-11-09T15:58:01.321Z,15.00
2022-11-09T16:00:47.215Z,14.90
2022-11-09T16:03:32.847Z,14.90
2022-11-09T16:06:23.556Z,14.80
2022-11-09T16:09:10.099Z,14.80
2022-11-09T16:11:55.790Z,14.80
2022-11-09T16:14:41.588Z,14.70
2022-11-09T16:17:27.538Z,14.70
2022-11-09T16:20:14.021Z,14.70
2022-11-09T16:22:59.566Z,14.70
2022-11-09T16:25:46.857Z,14.60
2022-11-09T16:28:33.038Z,14.60
2022-11-09T16:31:25.266Z,14.50
2022-11-09T16:34:21.024Z,14.40
2022-11-09T16:37:06.939Z,14.50
2022-11-09T16:39:52.932Z,14.40
2022-11-09T16:42:38.862Z,14.40
2022-11-09T16:45:29.082Z,14.40
2022-11-09T16:48:18.777Z,14.30
2022-11-09T16:51:04.562Z,14.30
2022-11-09T16:53:50.619Z,14.20
2022-11-09T16:56:36.518Z,14.20
2022-11-09T16:59:22.814Z,14.20
2022-11-09T17:02:09.018Z,14.30
2022-11-09T17:04:55.030Z,14.20
2022-11-09T17:07:42.824Z,14.20
2022-11-09T17:10:28.925Z,14.20
2022-11-09T17:13:14.577Z,14.20
2022-11-09T17:16:03.911Z,14.20
2022-11-09T17:18:52.781Z,14.20
2022-11-09T17:21:38.721Z,14.20
2022-11-09T17:24:24.838Z,14.20
2022-11-09T17:27:11.069Z,14.30
2022-11-09T17:29:57.089Z,14.20
2022-11-09T17:32:43.073Z,14.30
2022-11-09T17:35:29.401Z,14.30
2022-11-09T17:38:14.988Z,14.30
2022-11-09T17:41:07.421Z,14.30
2022-11-09T17:43:53.393Z,14.30
2022-11-09T17:46:39.480Z,14.20
2022-11-09T17:49:25.417Z,14.20
2022-11-09T17:52:11.409Z,14.20
2022-11-09T17:54:57.401Z,14.10
2022-11-09T17:57:43.207Z,14.10
2022-11-09T18:00:28.901Z,14.10
2022-11-09T18:03:14.675Z,14.00
2022-11-09T18:06:00.442Z,13.90
2022-11-09T18:09:03.626Z,13.90
2022-11-09T18:11:53.552Z,13.80
2022-11-09T18:14:39.287Z,13.80
2022-11-09T18:17:24.920Z,13.70
2022-11-09T18:20:10.660Z,13.70
2022-11-09T18:22:56.570Z,13.60
2022-11-09T18:25:42.260Z,13.50
2022-11-09T18:28:28.231Z,13.50
2022-11-09T18:31:14.150Z,13.40
2022-11-09T18:34:00.026Z,13.40
2022-11-09T18:36:45.779Z,13.30
2022-11-09T18:39:31.915Z,13.30
2022-11-09T18:42:17.564Z,13.30
2022-11-09T18:45:03.615Z,13.20
2022-11-09T18:47:49.868Z,13.20
2022-11-09T18:50:37.583Z,13.20
2022-11-09T18:53:28.912Z,13.20
2022-11-09T18:56:23.136Z,13.20
2022-11-09T18:59:10.629Z,13.20
2022-11-09T19:01:56.350Z,13.20
2022-11-09T19:04:42.110Z,13.10
2022-11-09T19:07:28.925Z,13.10
2022-11-09T19:10:15.065Z,13.10
2022-11-09T19:13:01.863Z,13.10
2022-11-09T19:15:47.809Z,13.10
2022-11-09T19:18:33.302Z,13.10
2022-11-09T19:21:22.115Z,13.10
2022-11-09T19:24:08.838Z,13.00
2022-11-09T19:26:55.810Z,13.10
2022-11-09T19:29:41.717Z,13.00
2022-11-09T19:32:27.621Z,13.00
2022-11-09T19:35:14.775Z,12.90
2022-11-09T19:38:05.164Z,12.90
2022-11-09T19:40:55.099Z,12.90
2022-11-09T19:43:40.996Z,12.80
2022-11-09T19:46:30.396Z,12.80
2022-11-09T19:49:16.279Z,12.80
2022-11-09T19:52:01.843Z,12.80
2022-11-09T19:54:48.094Z,12.80
2022-11-09T19:57:33.726Z,12.80
2022-11-09T20:00:19.610Z,12.80
2022-11-09T20:03:07.415Z,12.70
2022-11-09T20:05:56.321Z,12.70
2022-11-09T20:08:42.359Z,12.70
2022-11-09T20:11:46.854Z,12.60
2022-11-09T20:14:32.520Z,12.60
2022-11-09T20:17:18.396Z,12.60
2022-11-09T20:20:04.919Z,12.60
2022-11-09T20:22:51.782Z,12.60
2022-11-09T20:25:37.673Z,12.60
2022-11-09T20:28:23.622Z,12.60
2022-11-09T20:31:10.942Z,12.60
2022-11-09T20:33:56.747Z,12.60
2022-11-09T20:36:42.639Z,12.60
2022-11-09T20:39:28.473Z,12.60
2022-11-09T20:42:14.192Z,12.60
2022-11-09T20:45:00.164Z,12.60
2022-11-09T20:48:10.551Z,12.50
2022-11-09T20:50:52.031Z,12.50
2022-11-09T20:53:37.921Z,12.50
2022-11-09T20:56:23.451Z,12.50
2022-11-09T20:59:09.506Z,12.50
2022-11-09T21:01:55.690Z,12.50
2022-11-09T21:04:41.567Z,12.50
2022-11-09T21:07:27.683Z,12.40
2022-11-09T21:10:13.225Z,12.40
2022-11-09T21:12:58.905Z,12.40
2022-11-09T21:15:44.666Z,12.30
2022-11-09T21:18:30.225Z,12.30
2022-11-09T21:21:21.026Z,12.30
2022-11-09T21:24:27.354Z,12.30
2022-11-09T21:27:31.357Z,12.30
2022-11-09T21:30:17.001Z,12.30
2022-11-09T21:33:02.712Z,12.30
2022-11-09T21:35:48.645Z,12.30
2022-11-09T21:38:34.643Z,12.30
2022-11-09T21:41:38.355Z,12.30
2022-11-09T21:44:24.249Z,12.30
2022-11-09T21:47:09.897Z,12.30
2022-11-09T21:49:55.619Z,12.20
2022-11-09T21:52:41.328Z,12.30
2022-11-09T21:55:27.114Z,12.30
2022-11-09T21:58:13.129Z,12.20
2022-11-09T22:01:02.856Z,12.20
2022-11-09T22:03:48.819Z,12.30
2022-11-09T22:06:37.524Z,12.20
2022-11-09T22:09:23.727Z,12.20
2022-11-09T22:12:27.990Z,12.30
2022-11-09T22:15:32.384Z,12.20
2022-11-09T22:18:36.517Z,12.20
2022-11-09T22:21:22.815Z,12.20
2022-11-09T22:24:08.999Z,12.20
2022-11-09T22:26:54.664Z,12.10
2022-11-09T22:29:40.106Z,12.20
2022-11-09T22:32:25.752Z,12.10
2022-11-09T22:35:11.764Z,12.10
2022-11-09T22:38:01.635Z,12.10
2022-11-09T22:40:47.678Z,12.10
2022-11-09T22:43:37.341Z,12.10
2022-11-09T22:46:23.288Z,12.10
2022-11-09T22:49:10.230Z,12.10
2022-11-09T22:51:56.226Z,12.00
2022-11-09T22:54:41.916Z,12.00
2022-11-09T22:57:27.606Z,12.00
2022-11-09T23:00:15.084Z,12.00
2022-11-09T23:03:00.636Z,12.00
2022-11-09T23:05:47.985Z,12.00
2022-11-09T23:08:38.161Z,12.00
2022-11-09T23:11:25.091Z,12.00
2022-11-09T23:14:11.606Z,12.00
2022-11-09T23:16:57.483Z,12.00
2022-11-09T23:19:43.162Z,12.00
2022-11-09T23:22:29.394Z,12.00
2022-11-09T23:25:33.439Z,12.00
2022-11-09T23:28:19.447Z,11.90
2022-11-09T23:31:08.208Z,11.90
2022-11-09T23:33:55.519Z,11.90
2022-11-09T23:36:41.330Z,11.90
2022-11-09T23:39:26.803Z,11.90
2022-11-09T23:42:12.468Z,11.90
2022-11-09T23:44:58.182Z,11.90
2022-11-09T23:47:43.874Z,11.90
2022-11-09T23:50:29.743Z,11.90
2022-11-09T23:53:15.314Z,11.90
2022-11-09T23:56:02.352Z,11.90
2022-11-09T23:58:51.507Z,11.90
